createdAt,value
2019-02-11T00:00:38.239Z,68.34
2019-02-11T00:03:14.470Z,67.69
2019-02-11T00:05:46.303Z,67.98
2019-02-11T00:08:18.230Z,67.89
2019-02-11T00:10:52.579Z,68.07
2019-02-11T00:13:27.058Z,67.49
2019-02-11T00:16:05.349Z,67.58
2019-02-11T00:18:41.850Z,67.56
2019-02-11T00:21:19.327Z,68.30
2019-02-11T00:23:51.067Z,67.52
2019-02-11T00:26:24.463Z,66.97
2019-02-11T00:29:03.790Z,67.46
2019-02-11T00:31:36.692Z,67.46
2019-02-11T00:34:17.514Z,68.05
2019-02-11T00:36:57.904Z,67.54
2019-02-11T00:39:41.098Z,67.21
2019-02-11T00:42:13.956Z,67.80
2019-02-11T00:44:54.425Z,68.08
2019-02-11T00:47:33.546Z,68.16
2019-02-11T00:50:23.777Z,67.93
2019-02-11T00:53:06.316Z,67.95
2019-02-11T00:55:41.729Z,67.97
2019-02-11T00:58:17.673Z,68.16
2019-02-11T01:00:50.966Z,67.91
2019-02-11T01:03:34.490Z,68.64
2019-02-11T01:06:09.269Z,68.13
2019-02-11T01:08:44.583Z,68.55
2019-02-11T01:11:16.146Z,68.62
2019-02-11T01:13:49.364Z,68.88
2019-02-11T01:16:20.973Z,69.75
2019-02-11T01:18:52.834Z,69.23
2019-02-11T01:21:24.564Z,68.65
2019-02-11T01:23:58.691Z,69.20
2019-02-11T01:26:30.536Z,69.46
2019-02-11T01:29:08.583Z,70.02
2019-02-11T01:31:43.493Z,70.10
2019-02-11T01:34:22.989Z,70.17
2019-02-11T01:36:54.652Z,70.78
2019-02-11T01:39:26.221Z,69.73
2019-02-11T01:41:57.977Z,70.50
2019-02-11T01:44:29.846Z,71.11
2019-02-11T01:47:01.447Z,69.80
2019-02-11T01:49:35.738Z,70.16
2019-02-11T01:52:09.119Z,70.53
2019-02-11T01:54:42.623Z,70.41
2019-02-11T01:57:14.280Z,71.17
2019-02-11T01:59:46.166Z,71.46
2019-02-11T02:02:23.947Z,71.33
2019-02-11T02:04:58.193Z,71.09
2019-02-11T02:07:30.126Z,71.70
2019-02-11T02:10:04.770Z,70.81
2019-02-11T02:12:43.738Z,70.67
2019-02-11T02:15:16.392Z,71.47
2019-02-11T02:17:48.138Z,71.10
2019-02-11T02:20:28.421Z,70.98
2019-02-11T02:23:05.928Z,71.28
2019-02-11T02:25:38.178Z,71.43
2019-02-11T02:28:14.942Z,71.29
2019-02-11T02:30:48.690Z,71.41
2019-02-11T02:33:26.297Z,71.38
2019-02-11T02:36:03.128Z,70.84
2019-02-11T02:38:36.356Z,71.55
2019-02-11T02:41:08.228Z,71.08
2019-02-11T02:43:39.724Z,71.23
2019-02-11T02:46:11.551Z,71.78
2019-02-11T02:48:47.737Z,71.98
2019-02-11T02:51:22.611Z,71.32
2019-02-11T02:53:58.893Z,71.16
2019-02-11T02:56:36.273Z,70.33
2019-02-11T02:59:21.551Z,69.57
2019-02-11T03:01:59.584Z,70.31
2019-02-11T03:04:31.260Z,70.31
2019-02-11T03:07:14.881Z,70.33
2019-02-11T03:13:12.042Z,69.08
2019-02-11T03:15:46.238Z,69.18
2019-02-11T03:18:17.691Z,68.71
2019-02-11T03:20:49.245Z,68.34
2019-02-11T03:23:20.653Z,69.51
2019-02-11T03:25:52.096Z,69.15
2019-02-11T03:28:23.420Z,68.64
2019-02-11T03:30:54.748Z,69.15
2019-02-11T03:33:26.088Z,69.38
2019-02-11T03:35:57.551Z,68.87
2019-02-11T03:38:29.195Z,68.67
2019-02-11T03:41:00.623Z,69.31
2019-02-11T03:43:31.998Z,68.79
2019-02-11T03:46:04.499Z,68.77
2019-02-11T03:48:35.850Z,69.55
2019-02-11T03:51:07.177Z,70.29
2019-02-11T03:53:38.547Z,70.37
2019-02-11T03:56:09.830Z,69.79
2019-02-11T03:58:41.293Z,70.06
2019-02-11T04:01:12.607Z,70.26
2019-02-11T04:03:43.931Z,69.29
2019-02-11T04:06:15.310Z,69.76
2019-02-11T04:08:46.603Z,70.19
2019-02-11T04:11:17.837Z,70.41
2019-02-11T04:13:49.140Z,70.44
2019-02-11T04:16:20.404Z,69.74
2019-02-11T04:18:53.040Z,69.77
2019-02-11T04:21:24.380Z,68.72
2019-02-11T04:23:58.195Z,68.73
2019-02-11T04:26:33.609Z,68.78
2019-02-11T04:29:05.396Z,68.27
2019-02-11T04:31:36.950Z,68.29
2019-02-11T04:34:08.832Z,68.05
2019-02-11T04:36:40.628Z,67.96
2019-02-11T04:39:12.686Z,68.11
2019-02-11T04:41:44.299Z,68.62
2019-02-11T04:44:15.927Z,68.38
2019-02-11T04:46:48.276Z,68.27
2019-02-11T04:49:22.681Z,67.75
2019-02-11T04:51:54.347Z,68.23
2019-02-11T04:54:28.219Z,68.28
2019-02-11T04:57:04.028Z,68.47
2019-02-11T04:59:36.727Z,68.06
2019-02-11T05:02:08.356Z,68.50
2019-02-11T05:04:42.779Z,69.02
2019-02-11T05:07:14.247Z,68.69
2019-02-11T05:09:45.568Z,68.87
2019-02-11T05:12:16.891Z,68.82
2019-02-11T05:14:48.193Z,68.57
2019-02-11T05:17:19.651Z,68.72
2019-02-11T05:19:51.058Z,68.25
2019-02-11T05:22:22.484Z,68.98
2019-02-11T05:24:53.868Z,69.05
2019-02-11T05:27:25.201Z,68.68
2019-02-11T05:29:56.642Z,68.10
2019-02-11T05:32:28.099Z,68.61
2019-02-11T05:35:00.991Z,68.11
2019-02-11T05:37:32.509Z,67.90
2019-02-11T05:40:06.505Z,67.95
2019-02-11T05:42:37.926Z,68.02
2019-02-11T05:45:19.287Z,67.54
2019-02-11T05:48:09.517Z,67.87
2019-02-11T05:50:40.856Z,67.55
2019-02-11T05:53:12.254Z,68.13
2019-02-11T05:55:43.524Z,67.59
2019-02-11T05:58:14.815Z,67.55
2019-02-11T06:00:46.193Z,67.79
2019-02-11T06:03:17.685Z,67.91
2019-02-11T06:05:49.022Z,67.49
2019-02-11T06:08:20.350Z,67.84
2019-02-11T06:10:51.811Z,68.04
2019-02-11T06:13:23.119Z,68.24
2019-02-11T06:15:54.533Z,68.42
2019-02-11T06:18:25.872Z,68.32
2019-02-11T06:20:57.258Z,68.36
2019-02-11T06:23:29.690Z,67.88
2019-02-11T06:26:01.252Z,67.81
2019-02-11T06:28:33.025Z,67.98
2019-02-11T06:31:04.359Z,67.96
2019-02-11T06:33:35.657Z,67.73
2019-02-11T06:36:12.438Z,67.74
2019-02-11T06:38:39.951Z,67.85
2019-02-11T06:41:12.937Z,67.96
2019-02-11T06:43:44.257Z,68.19
2019-02-11T06:46:15.621Z,68.83
2019-02-11T06:48:48.004Z,69.15
2019-02-11T06:53:49.496Z,69.20
2019-02-11T06:56:20.975Z,68.73
2019-02-11T06:58:53.996Z,69.37
2019-02-11T07:01:25.279Z,69.23
2019-02-11T07:03:56.571Z,68.96
2019-02-11T07:06:28.075Z,69.08
2019-02-11T07:08:59.431Z,68.99
2019-02-11T07:11:30.712Z,69.26
2019-02-11T07:14:02.004Z,68.53
2019-02-11T07:16:33.400Z,68.77
2019-02-11T07:19:04.713Z,69.33
2019-02-11T07:21:36.115Z,69.36
2019-02-11T07:24:07.605Z,68.97
2019-02-11T07:26:39.000Z,69.23
2019-02-11T07:29:10.374Z,68.83
2019-02-11T07:31:41.640Z,69.05
2019-02-11T07:34:12.925Z,69.01
2019-02-11T07:36:44.271Z,69.11
2019-02-11T07:39:15.645Z,68.96
2019-02-11T07:42:04.939Z,69.06
2019-02-11T07:44:37.848Z,68.88
2019-02-11T07:47:09.208Z,68.31
2019-02-11T07:52:12.141Z,68.50
2019-02-11T07:54:43.432Z,68.69
2019-02-11T07:57:14.697Z,68.82
2019-02-11T07:59:46.122Z,68.85
2019-02-11T08:02:17.655Z,68.89
2019-02-11T08:04:50.601Z,69.01
2019-02-11T08:07:21.945Z,68.88
2019-02-11T08:09:53.223Z,68.60
2019-02-11T08:12:24.551Z,69.05
2019-02-11T08:14:55.888Z,68.80
2019-02-11T08:17:27.130Z,68.42
2019-02-11T08:19:58.508Z,67.63
2019-02-11T08:22:29.761Z,67.77
2019-02-11T08:25:01.091Z,67.99
2019-02-11T08:27:32.524Z,68.12
2019-02-11T08:30:06.028Z,67.89
2019-02-11T08:32:37.359Z,68.63
2019-02-11T08:35:17.556Z,67.81
2019-02-11T08:37:48.793Z,68.20
2019-02-11T08:40:23.308Z,68.32
2019-02-11T08:42:54.721Z,68.17
2019-02-11T08:45:26.064Z,68.55
2019-02-11T08:47:57.701Z,67.94
2019-02-11T08:50:29.147Z,67.68
2019-02-11T08:53:00.510Z,68.14
2019-02-11T08:55:31.955Z,67.95
2019-02-11T08:58:03.296Z,67.58
2019-02-11T09:00:34.898Z,67.56
2019-02-11T09:03:06.367Z,68.28
2019-02-11T09:05:44.550Z,66.88
2019-02-11T09:08:16.019Z,67.32
2019-02-11T09:10:47.425Z,67.21
2019-02-11T09:13:18.996Z,67.00
2019-02-11T09:15:55.349Z,66.89
2019-02-11T09:18:23.248Z,66.92
2019-02-11T09:20:54.695Z,67.19
2019-02-11T09:23:26.193Z,67.05
2019-02-11T09:25:57.446Z,66.30
2019-02-11T09:28:28.742Z,65.84
2019-02-11T09:31:00.013Z,65.29
2019-02-11T09:33:31.299Z,66.04
2019-02-11T09:36:03.422Z,64.69
2019-02-11T09:38:36.161Z,65.55
2019-02-11T09:41:07.481Z,64.03
2019-02-11T09:43:38.787Z,64.63
2019-02-11T09:46:10.137Z,64.91
2019-02-11T09:48:41.593Z,63.72
2019-02-11T09:51:12.915Z,65.39
2019-02-11T09:53:44.394Z,62.36
2019-02-11T09:56:17.874Z,62.55
2019-02-11T09:59:05.153Z,62.27
2019-02-11T10:01:36.575Z,61.71
2019-02-11T10:04:08.881Z,63.25
2019-02-11T10:06:40.105Z,63.62
2019-02-11T10:09:11.743Z,61.98
2019-02-11T10:11:43.142Z,63.11
2019-02-11T10:14:14.595Z,59.40
2019-02-11T10:16:46.140Z,61.60
2019-02-11T10:19:17.625Z,60.67
2019-02-11T10:21:48.880Z,59.29
2019-02-11T10:24:20.175Z,58.84
2019-02-11T10:26:51.427Z,59.64
2019-02-11T10:29:22.718Z,60.54
2019-02-11T10:31:53.952Z,60.85
2019-02-11T10:34:25.408Z,60.62
2019-02-11T10:36:56.656Z,61.05
2019-02-11T10:39:28.152Z,61.28
2019-02-11T10:41:59.476Z,60.09
2019-02-11T10:44:30.908Z,59.93
2019-02-11T10:47:02.192Z,61.72
2019-02-11T10:49:33.541Z,61.18
2019-02-11T10:52:15.233Z,61.40
2019-02-11T10:54:46.564Z,61.46
2019-02-11T10:57:19.847Z,59.14
2019-02-11T10:59:51.123Z,61.39
2019-02-11T11:02:22.711Z,61.17
2019-02-11T11:04:54.100Z,61.07
2019-02-11T11:07:25.474Z,61.17
2019-02-11T11:09:56.734Z,61.16
2019-02-11T11:12:27.979Z,61.00
2019-02-11T11:14:59.392Z,60.78
2019-02-11T11:17:31.821Z,60.42
2019-02-11T11:20:03.957Z,60.73
2019-02-11T11:22:35.413Z,61.34
2019-02-11T11:25:08.670Z,59.62
2019-02-11T11:27:40.307Z,60.59
2019-02-11T11:30:18.288Z,60.60
2019-02-11T11:32:49.860Z,60.01
2019-02-11T11:35:21.262Z,60.68
2019-02-11T11:37:52.630Z,60.77
2019-02-11T11:40:24.708Z,60.96
2019-02-11T11:42:56.039Z,60.66
2019-02-11T11:45:27.975Z,61.35
2019-02-11T11:47:59.529Z,61.25
2019-02-11T11:50:30.788Z,60.97
2019-02-11T11:53:03.383Z,58.41
2019-02-11T11:55:34.704Z,58.72
2019-02-11T11:58:06.251Z,59.71
2019-02-11T12:00:37.722Z,57.81
2019-02-11T12:03:09.171Z,57.79
2019-02-11T12:05:43.747Z,57.59
2019-02-11T12:08:15.332Z,58.11
2019-02-11T12:10:50.930Z,55.85
2019-02-11T12:13:23.678Z,57.85
2019-02-11T12:15:55.234Z,57.01
2019-02-11T12:18:26.621Z,57.66
2019-02-11T12:20:58.006Z,57.55
2019-02-11T12:23:29.510Z,57.74
2019-02-11T12:26:00.872Z,57.63
2019-02-11T12:28:32.385Z,58.22
2019-02-11T12:31:03.792Z,58.42
2019-02-11T12:33:35.197Z,59.82
2019-02-11T12:36:07.527Z,59.62
2019-02-11T12:38:38.854Z,59.66
2019-02-11T12:41:10.109Z,60.67
2019-02-11T12:43:41.375Z,61.03
2019-02-11T12:46:13.977Z,60.34
2019-02-11T12:48:45.237Z,60.71
2019-02-11T12:51:16.934Z,59.59
2019-02-11T12:53:48.543Z,59.99
2019-02-11T12:56:20.054Z,59.80
2019-02-11T12:58:51.448Z,60.44
2019-02-11T13:01:22.811Z,61.44
2019-02-11T13:03:54.096Z,61.49
2019-02-11T13:06:25.562Z,60.33
2019-02-11T13:08:57.081Z,61.31
2019-02-11T13:11:28.547Z,61.69
2019-02-11T13:13:59.889Z,61.07
2019-02-11T13:16:31.371Z,62.24
2019-02-11T13:19:16.496Z,60.82
2019-02-11T13:21:48.211Z,61.76
2019-02-11T13:24:19.471Z,58.73
2019-02-11T13:26:50.879Z,60.78
2019-02-11T13:29:22.133Z,60.05
2019-02-11T13:31:53.581Z,59.60
2019-02-11T13:34:25.910Z,60.41
2019-02-11T13:36:57.401Z,59.96
2019-02-11T13:39:28.899Z,59.96
2019-02-11T13:42:00.368Z,58.65
2019-02-11T13:44:31.846Z,57.48
2019-02-11T13:47:05.148Z,56.13
2019-02-11T13:49:36.743Z,56.91
2019-02-11T13:52:08.170Z,56.41
2019-02-11T13:54:39.670Z,57.59
2019-02-11T13:57:11.211Z,57.70
2019-02-11T13:59:42.767Z,58.19
2019-02-11T14:02:14.680Z,58.08
2019-02-11T14:04:46.011Z,58.70
2019-02-11T14:07:17.436Z,59.85
2019-02-11T14:09:48.781Z,61.13
2019-02-11T14:12:20.631Z,63.30
2019-02-11T14:14:51.891Z,63.87
2019-02-11T14:17:23.426Z,65.84
2019-02-11T14:19:54.757Z,66.69
2019-02-11T14:22:26.062Z,67.84
2019-02-11T14:24:57.360Z,67.79
2019-02-11T14:27:28.875Z,65.86
2019-02-11T14:30:00.510Z,62.78
2019-02-11T14:32:32.431Z,63.70
2019-02-11T14:35:04.594Z,63.99
2019-02-11T14:37:42.261Z,63.56
2019-02-11T14:40:15.706Z,65.52
2019-02-11T14:42:47.463Z,65.00
2019-02-11T14:45:21.000Z,64.59
2019-02-11T14:47:52.405Z,61.73
2019-02-11T14:50:23.731Z,60.30
2019-02-11T14:52:55.246Z,60.64
2019-02-11T14:55:26.765Z,61.55
2019-02-11T14:57:58.125Z,61.96
2019-02-11T15:00:29.412Z,61.36
2019-02-11T15:03:01.024Z,61.57
2019-02-11T15:05:32.419Z,61.72
2019-02-11T15:08:04.958Z,60.95
2019-02-11T15:10:36.323Z,59.98
2019-02-11T15:13:08.862Z,60.81
2019-02-11T15:15:40.128Z,61.02
2019-02-11T15:18:11.724Z,60.90
2019-02-11T15:20:44.719Z,61.46
2019-02-11T15:23:16.173Z,61.51
2019-02-11T15:25:47.507Z,61.57
2019-02-11T15:28:18.900Z,62.80
2019-02-11T15:30:50.319Z,62.94
2019-02-11T15:33:21.873Z,62.91
2019-02-11T15:35:59.026Z,63.02
2019-02-11T15:38:30.349Z,63.55
2019-02-11T15:41:01.703Z,64.75
2019-02-11T15:43:34.626Z,63.79
2019-02-11T15:46:06.139Z,65.09
2019-02-11T15:48:42.799Z,66.64
2019-02-11T15:51:11.717Z,66.63
2019-02-11T15:53:43.469Z,67.03
2019-02-11T15:56:15.888Z,66.81
2019-02-11T15:58:47.568Z,67.08
2019-02-11T16:01:25.644Z,67.85
2019-02-11T16:04:00.294Z,66.09
2019-02-11T16:06:37.888Z,66.27
2019-02-11T16:09:06.767Z,65.69
2019-02-11T16:11:38.214Z,65.78
2019-02-11T16:14:09.521Z,65.38
2019-02-11T16:16:40.862Z,65.64
2019-02-11T16:19:12.258Z,65.65
2019-02-11T16:21:46.402Z,65.43
2019-02-11T16:24:17.916Z,65.66
2019-02-11T16:26:49.362Z,65.72
2019-02-11T16:29:22.649Z,65.68
2019-02-11T16:32:00.569Z,66.34
2019-02-11T16:34:27.445Z,65.95
2019-02-11T16:36:58.898Z,66.94
2019-02-11T16:39:32.196Z,66.91
2019-02-11T16:42:09.240Z,66.89
2019-02-11T16:44:40.569Z,67.25
2019-02-11T16:47:12.102Z,67.33
2019-02-11T16:49:44.615Z,67.39
2019-02-11T16:52:16.090Z,67.27
2019-02-11T16:54:59.068Z,67.82
2019-02-11T16:57:32.179Z,67.90
2019-02-11T17:00:04.274Z,67.82
2019-02-11T17:02:36.470Z,68.11
2019-02-11T17:05:10.947Z,68.47
2019-02-11T17:07:42.581Z,68.18
2019-02-11T17:10:17.599Z,68.00
2019-02-11T17:12:50.044Z,68.04
2019-02-11T17:15:21.954Z,67.83
2019-02-11T17:17:53.278Z,67.79
2019-02-11T17:20:24.640Z,67.42
2019-02-11T17:22:56.150Z,66.99
2019-02-11T17:25:27.487Z,66.94
2019-02-11T17:27:58.786Z,66.81
2019-02-11T17:30:37.756Z,66.18
2019-02-11T17:33:09.111Z,65.59
2019-02-11T17:36:01.824Z,64.74
2019-02-11T17:38:33.209Z,64.90
2019-02-11T17:41:04.587Z,64.19
2019-02-11T17:43:36.924Z,64.42
2019-02-11T17:46:08.298Z,64.43
2019-02-11T17:48:39.877Z,65.04
2019-02-11T17:51:11.454Z,64.73
2019-02-11T17:53:42.933Z,64.52
2019-02-11T17:56:16.532Z,64.95
2019-02-11T17:58:51.291Z,64.67
2019-02-11T18:01:22.885Z,64.93
2019-02-11T18:03:54.296Z,65.02
2019-02-11T18:06:27.444Z,64.90
2019-02-11T18:08:59.550Z,64.83
2019-02-11T18:11:31.132Z,64.59
2019-02-11T18:14:02.785Z,64.82
2019-02-11T18:16:34.421Z,64.65
2019-02-11T18:19:06.401Z,64.62
2019-02-11T18:21:42.735Z,65.20
2019-02-11T18:24:14.371Z,64.72
2019-02-11T18:26:45.951Z,65.20
2019-02-11T18:29:17.435Z,65.98
2019-02-11T18:31:48.762Z,66.06
2019-02-11T18:34:20.181Z,66.29
2019-02-11T18:36:51.673Z,66.59
2019-02-11T18:39:23.956Z,66.39
2019-02-11T18:41:55.614Z,65.85
2019-02-11T18:44:26.957Z,65.83
2019-02-11T18:47:00.416Z,66.40
2019-02-11T18:49:34.625Z,67.70
2019-02-11T18:52:05.198Z,70.37
2019-02-11T18:54:37.716Z,72.47
2019-02-11T18:57:09.333Z,73.31
2019-02-11T18:59:41.700Z,73.11
2019-02-11T19:02:13.221Z,74.47
2019-02-11T19:04:44.519Z,75.58
2019-02-11T19:07:16.108Z,76.12
2019-02-11T19:09:53.306Z,76.40
2019-02-11T19:12:24.840Z,76.55
2019-02-11T19:14:56.484Z,76.43
2019-02-11T19:17:28.083Z,77.12
2019-02-11T19:20:07.697Z,76.97
2019-02-11T19:22:39.290Z,76.96
2019-02-11T19:25:30.753Z,77.00
2019-02-11T19:28:02.286Z,76.39
2019-02-11T19:30:33.809Z,75.40
2019-02-11T19:33:05.456Z,75.02
2019-02-11T19:35:36.890Z,74.06
2019-02-11T19:38:08.766Z,74.18
2019-02-11T19:40:41.915Z,73.61
2019-02-11T19:43:13.536Z,73.47
2019-02-11T19:45:45.029Z,72.99
2019-02-11T19:48:16.673Z,72.25
2019-02-11T19:50:48.176Z,72.50
2019-02-11T19:53:19.685Z,72.53
2019-02-11T19:55:51.179Z,72.69
2019-02-11T19:58:23.068Z,72.44
2019-02-11T20:00:54.564Z,72.97
2019-02-11T20:03:29.096Z,72.84
2019-02-11T20:06:00.619Z,73.00
2019-02-11T20:08:32.343Z,72.91
2019-02-11T20:11:03.855Z,72.59
2019-02-11T20:13:35.541Z,72.85
2019-02-11T20:16:07.211Z,72.24
2019-02-11T20:18:38.739Z,71.84
2019-02-11T20:21:10.259Z,71.94
2019-02-11T20:23:42.914Z,71.55
2019-02-11T20:26:14.412Z,71.48
2019-02-11T20:28:45.942Z,71.92
2019-02-11T20:31:17.571Z,71.46
2019-02-11T20:33:49.185Z,71.16
2019-02-11T20:36:20.746Z,71.26
2019-02-11T20:38:52.515Z,71.71
2019-02-11T20:41:24.118Z,71.47
2019-02-11T20:43:55.849Z,71.71
2019-02-11T20:46:27.338Z,71.88
2019-02-11T20:49:01.444Z,71.91
2019-02-11T20:51:32.943Z,72.15
2019-02-11T20:54:05.765Z,72.25
2019-02-11T20:56:37.196Z,72.25
2019-02-11T20:59:08.752Z,72.30
2019-02-11T21:01:40.535Z,72.55
2019-02-11T21:04:12.325Z,72.59
2019-02-11T21:06:43.880Z,72.75
2019-02-11T21:09:15.298Z,72.92
2019-02-11T21:11:46.941Z,72.78
2019-02-11T21:14:18.382Z,73.16
2019-02-11T21:16:49.930Z,73.31
2019-02-11T21:19:22.843Z,72.96
2019-02-11T21:21:54.310Z,73.07
2019-02-11T21:24:25.782Z,73.34
2019-02-11T21:26:57.221Z,73.18
2019-02-11T21:29:28.817Z,73.55
2019-02-11T21:32:00.248Z,73.73
2019-02-11T21:34:32.708Z,73.55
2019-02-11T21:37:04.074Z,73.17
2019-02-11T21:39:37.199Z,73.12
2019-02-11T21:42:08.527Z,72.73
2019-02-11T21:44:39.824Z,72.52
2019-02-11T21:47:11.271Z,72.17
2019-02-11T21:49:42.695Z,72.13
2019-02-11T21:52:13.942Z,72.21
2019-02-11T21:54:45.459Z,72.33
2019-02-11T21:57:16.706Z,72.53
2019-02-11T21:59:48.101Z,72.90
2019-02-11T22:02:20.514Z,73.20
2019-02-11T22:04:51.974Z,73.49
2019-02-11T22:07:23.396Z,73.66
2019-02-11T22:09:56.061Z,74.04
2019-02-11T22:12:27.480Z,74.24
2019-02-11T22:15:00.380Z,74.52
2019-02-11T22:17:31.631Z,74.68
2019-02-11T22:20:03.779Z,74.69
2019-02-11T22:22:35.107Z,74.36
2019-02-11T22:25:09.647Z,73.77
2019-02-11T22:27:40.986Z,73.38
2019-02-11T22:30:22.661Z,72.86
2019-02-11T22:32:53.989Z,72.43
2019-02-11T22:35:25.438Z,72.45
2019-02-11T22:37:56.789Z,72.20
2019-02-11T22:40:28.150Z,71.61
2019-02-11T22:42:59.378Z,71.57
2019-02-11T22:45:30.909Z,71.96
2019-02-11T22:48:02.160Z,71.81
2019-02-11T22:50:33.622Z,71.16
2019-02-11T22:53:04.979Z,71.39
2019-02-11T22:55:36.447Z,72.13
2019-02-11T22:58:07.694Z,72.23
2019-02-11T23:00:46.815Z,72.39
2019-02-11T23:03:20.440Z,72.83
2019-02-11T23:05:51.901Z,72.73
2019-02-11T23:08:23.235Z,72.96
2019-02-11T23:10:54.708Z,72.64
2019-02-11T23:13:25.986Z,72.79
2019-02-11T23:15:59.943Z,72.99
2019-02-11T23:18:31.212Z,73.08
2019-02-11T23:21:02.786Z,73.23
2019-02-11T23:23:34.044Z,73.21
2019-02-11T23:26:05.582Z,73.29
2019-02-11T23:28:36.936Z,73.23
2019-02-11T23:31:08.328Z,73.03
2019-02-11T23:33:39.720Z,72.91
2019-02-11T23:36:11.101Z,72.97
2019-02-11T23:38:42.460Z,72.89
2019-02-11T23:41:13.862Z,72.70
2019-02-11T23:43:45.143Z,72.46
2019-02-11T23:46:16.529Z,72.60
2019-02-11T23:48:47.847Z,72.51
2019-02-11T23:51:19.217Z,72.47
2019-02-11T23:53:50.521Z,72.65
2019-02-11T23:56:21.802Z,72.74
2019-02-11T23:58:53.301Z,72.73
